Wilton, Arkansas
Current Conditions -  °F | °C
As of 4:53 PM on Wednesday 26 Nov 2014 (Local Time) from KTXK Reporting Station
Clear Clear  
Wind Chill: 59°   Ceiling: Unl
Heat Index: 59°   Visibility: 10mi
Dew Point: 31°   Wind: 10mph
Humidity: 35%   Direction: 310°NW
Pressure: 30.17"   Gusts: NA
Location:  33.74°N, 94.15°W
Report Text: KTXK 262253Z 31009KT 10SM CLR 15/M01 A3017 RMK AO2 PRESRR SLP216 T01501006
Loading
Personal Weather Stations






























Interactive Weather Map New forecast layout! Learn more

10-Day Weather Forecast

Advertisements
Track Severe Weather on mobile